Time;durP1;ratioP1;P1;durP2;ratioP2;P2;SDS_P1;SDS_P2;PMS_P1;PMS_P2;Temp;Humidity;BMP_temperature;BMP_pressure;BME280_temperature;BME280_humidity;BME280_pressure;Samples;Min_cycle;Max_cycle;Signal;HPM_P1;HPM_P2
2023/12/16 00:01:49;;;;;;;4.35;2.90;;;8.10;75.40;;;;;;5008087;28;20516;-59
2023/12/16 00:04:15;;;;;;;4.07;2.90;;;8.10;75.40;;;;;;5009001;28;20760;-61
2023/12/16 00:06:40;;;;;;;6.82;3.00;;;8.10;75.50;;;;;;5009070;28;20034;-59
2023/12/16 00:09:06;;;;;;;2.72;2.53;;;8.10;75.60;;;;;;5009389;28;20116;-60
2023/12/16 00:11:32;;;;;;;2.92;2.40;;;8.10;75.60;;;;;;5008310;28;20041;-61
2023/12/16 00:13:57;;;;;;;3.05;2.50;;;8.00;75.60;;;;;;5009039;28;20472;-60
2023/12/16 00:16:26;;;;;;;2.60;2.40;;;8.00;75.70;;;;;;5009402;28;20072;-61
2023/12/16 00:18:52;;;;;;;2.58;2.30;;;8.00;75.80;;;;;;5007103;28;20053;-59
2023/12/16 00:21:18;;;;;;;3.45;2.78;;;8.00;75.80;;;;;;5010270;28;20349;-59
2023/12/16 00:23:43;;;;;;;8.90;5.00;;;8.00;75.70;;;;;;5000730;28;20034;-60
2023/12/16 00:26:09;;;;;;;10.93;4.82;;;8.00;75.70;;;;;;5005582;28;20026;-60
2023/12/16 00:28:35;;;;;;;5.90;3.30;;;7.90;75.80;;;;;;5009597;28;20425;-61
2023/12/16 00:31:01;;;;;;;6.70;3.70;;;7.90;75.80;;;;;;5003104;28;20520;-60
2023/12/16 00:33:26;;;;;;;3.90;3.00;;;7.90;75.90;;;;;;5008316;28;20030;-60
2023/12/16 00:35:52;;;;;;;3.42;2.97;;;7.90;76.00;;;;;;5007491;28;20091;-59
2023/12/16 00:38:17;;;;;;;3.97;3.10;;;7.90;76.10;;;;;;5008406;28;20061;-60
2023/12/16 00:40:43;;;;;;;3.47;2.90;;;7.90;76.20;;;;;;5008351;28;20048;-61
2023/12/16 00:43:08;;;;;;;4.22;2.92;;;7.90;76.20;;;;;;5010091;28;20601;-61
2023/12/16 00:45:34;;;;;;;3.70;3.15;;;7.90;76.00;;;;;;5008817;28;20033;-60
2023/12/16 00:48:00;;;;;;;4.65;3.33;;;7.90;76.00;;;;;;5008095;28;20121;-60
2023/12/16 00:50:26;;;;;;;6.07;2.70;;;7.90;75.90;;;;;;5007067;28;20350;-60
2023/12/16 00:52:51;;;;;;;4.50;3.05;;;7.80;75.60;;;;;;5006949;28;20139;-60
2023/12/16 00:55:17;;;;;;;5.00;2.95;;;7.80;75.40;;;;;;5008907;28;20064;-60
2023/12/16 00:57:43;;;;;;;4.88;4.10;;;7.80;75.40;;;;;;5007586;28;20049;-61
2023/12/16 01:00:09;;;;;;;6.88;4.05;;;7.70;75.40;;;;;;5006051;28;20149;-60
2023/12/16 01:02:35;;;;;;;4.72;3.58;;;7.60;75.40;;;;;;4992464;28;20035;-59
2023/12/16 01:05:01;;;;;;;3.47;2.78;;;7.60;75.50;;;;;;5008451;28;20719;-60
2023/12/16 01:07:26;;;;;;;2.90;2.60;;;7.50;75.60;;;;;;5008197;28;20045;-59
2023/12/16 01:09:53;;;;;;;2.58;2.30;;;7.50;75.60;;;;;;5008679;28;20198;-60
2023/12/16 01:12:18;;;;;;;4.35;2.50;;;7.50;75.60;;;;;;5004132;28;20022;-59
2023/12/16 01:14:44;;;;;;;4.05;3.03;;;7.40;75.80;;;;;;5009281;28;20473;-59
2023/12/16 01:17:10;;;;;;;3.72;3.03;;;7.40;76.00;;;;;;4988006;28;20121;-59
2023/12/16 01:19:35;;;;;;;3.50;3.10;;;7.40;76.20;;;;;;5004819;28;20072;-59
2023/12/16 01:22:01;;;;;;;3.40;2.90;;;7.40;76.30;;;;;;5006846;28;20030;-59
2023/12/16 01:24:27;;;;;;;2.92;2.63;;;7.40;76.40;;;;;;5003523;28;20115;-60
2023/12/16 01:26:53;;;;;;;2.47;2.25;;;7.40;76.50;;;;;;5005704;28;20026;-61
2023/12/16 01:29:19;;;;;;;5.25;2.75;;;7.40;76.50;;;;;;5008126;28;20029;-61
2023/12/16 01:31:44;;;;;;;4.55;2.80;;;7.40;76.50;;;;;;5007971;28;20519;-61
2023/12/16 01:34:10;;;;;;;5.93;3.63;;;7.40;76.50;;;;;;5008348;28;20385;-60
2023/12/16 01:36:36;;;;;;;6.70;3.95;;;7.40;76.50;;;;;;5006762;28;20033;-59
2023/12/16 01:39:02;;;;;;;7.43;4.22;;;7.40;76.60;;;;;;5006982;28;20515;-60
2023/12/16 01:41:28;;;;;;;6.45;4.70;;;7.40;76.70;;;;;;5007821;28;20485;-60
2023/12/16 01:43:53;;;;;;;10.60;5.53;;;7.40;76.70;;;;;;5005550;28;20069;-59
2023/12/16 01:46:21;;;;;;;17.65;7.05;;;7.40;76.90;;;;;;5007603;28;20034;-59
2023/12/16 01:48:48;;;;;;;9.88;5.32;;;7.40;77.00;;;;;;5007715;28;20053;-61
2023/12/16 01:51:14;;;;;;;4.97;3.63;;;7.40;77.00;;;;;;5007525;28;20065;-60
2023/12/16 01:53:41;;;;;;;4.22;3.08;;;7.40;77.00;;;;;;5006185;28;20038;-59
2023/12/16 01:56:08;;;;;;;3.20;2.60;;;7.40;77.10;;;;;;5007144;28;20035;-60
2023/12/16 01:58:35;;;;;;;4.80;2.60;;;7.50;77.10;;;;;;5006351;28;20100;-61
2023/12/16 02:01:01;;;;;;;4.28;2.70;;;7.50;77.00;;;;;;5006579;28;20026;-60
2023/12/16 02:03:28;;;;;;;4.38;2.60;;;7.50;77.00;;;;;;5005425;28;20519;-59
2023/12/16 02:05:55;;;;;;;3.08;2.47;;;7.50;77.00;;;;;;5008149;28;20056;-61
2023/12/16 02:08:21;;;;;;;4.18;2.90;;;7.50;76.90;;;;;;5007882;28;20038;-61
2023/12/16 02:10:46;;;;;;;3.58;3.05;;;7.60;77.00;;;;;;5005527;28;20141;-59
2023/12/16 02:13:12;;;;;;;2.78;2.50;;;7.60;77.00;;;;;;5003044;28;20369;-60
2023/12/16 02:15:38;;;;;;;5.28;2.72;;;7.60;77.00;;;;;;5006099;28;20038;-60
2023/12/16 02:18:04;;;;;;;3.13;2.80;;;7.60;77.00;;;;;;5006643;28;20037;-60
2023/12/16 02:20:29;;;;;;;2.85;2.53;;;7.60;77.00;;;;;;4990147;28;20033;-61
2023/12/16 02:22:55;;;;;;;3.58;2.88;;;7.60;77.00;;;;;;5003812;28;20069;-60
2023/12/16 02:25:21;;;;;;;3.70;2.88;;;7.70;77.10;;;;;;5003888;28;20030;-59
2023/12/16 02:27:47;;;;;;;6.05;3.40;;;7.70;77.00;;;;;;5000989;28;20033;-60
2023/12/16 02:30:13;;;;;;;4.15;3.42;;;7.70;76.90;;;;;;5006868;28;20117;-60
2023/12/16 02:32:41;;;;;;;5.68;4.22;;;7.70;76.80;;;;;;5006267;28;20104;-60
2023/12/16 02:35:07;;;;;;;5.63;4.60;;;7.70;76.90;;;;;;5002896;28;20033;-60
2023/12/16 02:37:32;;;;;;;6.50;4.55;;;7.70;77.00;;;;;;5006726;28;20033;-60
2023/12/16 02:39:58;;;;;;;8.13;4.78;;;7.70;77.00;;;;;;5005331;28;20431;-61
2023/12/16 02:42:24;;;;;;;5.40;4.78;;;7.70;76.90;;;;;;5006853;28;20052;-60
2023/12/16 02:44:49;;;;;;;6.25;4.63;;;7.70;77.00;;;;;;5006365;28;20504;-59
2023/12/16 02:47:15;;;;;;;6.88;4.72;;;7.70;77.00;;;;;;4920399;28;20430;-61
2023/12/16 02:49:41;;;;;;;6.22;4.95;;;7.80;77.10;;;;;;5006519;28;20030;-61
2023/12/16 02:52:07;;;;;;;6.32;5.05;;;7.80;77.10;;;;;;5005658;28;20477;-60
2023/12/16 02:54:33;;;;;;;5.47;4.97;;;7.80;77.10;;;;;;5006804;28;20496;-61
2023/12/16 02:56:58;;;;;;;8.18;5.93;;;7.80;77.10;;;;;;5006596;28;20060;-59
2023/12/16 02:59:24;;;;;;;5.78;5.10;;;7.80;77.10;;;;;;5004906;28;20034;-61
2023/12/16 03:01:50;;;;;;;6.95;5.03;;;7.80;77.00;;;;;;5002595;28;20030;-61
2023/12/16 03:04:15;;;;;;;6.82;5.05;;;7.80;76.90;;;;;;5006595;28;20038;-61
2023/12/16 03:06:45;;;;;;;5.30;4.55;;;7.80;76.90;;;;;;5002399;28;20691;-60
2023/12/16 03:09:11;;;;;;;7.70;5.63;;;7.80;76.80;;;;;;5004864;28;20046;-60
2023/12/16 03:11:37;;;;;;;7.13;5.60;;;7.80;76.70;;;;;;5006431;28;20147;-59
2023/12/16 03:14:03;;;;;;;6.68;5.47;;;7.80;76.70;;;;;;5006442;28;20061;-60
2023/12/16 03:16:28;;;;;;;7.13;5.32;;;7.80;76.70;;;;;;5006103;28;20066;-60
2023/12/16 03:18:54;;;;;;;4.63;4.13;;;7.80;76.70;;;;;;5006469;28;20465;-60
2023/12/16 03:21:19;;;;;;;4.05;3.65;;;7.80;76.70;;;;;;5003488;28;20754;-60
2023/12/16 03:23:45;;;;;;;4.88;4.13;;;7.80;76.70;;;;;;5006450;28;20030;-60
2023/12/16 03:26:11;;;;;;;5.18;3.72;;;7.80;76.70;;;;;;5005813;28;20104;-61
2023/12/16 03:28:36;;;;;;;4.60;3.63;;;7.80;76.70;;;;;;4988508;28;20492;-60
2023/12/16 03:31:02;;;;;;;4.57;3.80;;;7.80;76.70;;;;;;5004771;28;20038;-60
2023/12/16 03:33:28;;;;;;;4.53;3.60;;;7.80;76.70;;;;;;5001894;28;20026;-60
2023/12/16 03:35:53;;;;;;;5.18;3.40;;;7.80;76.70;;;;;;5006261;28;20147;-60
2023/12/16 03:38:19;;;;;;;4.32;3.88;;;7.80;76.70;;;;;;5005215;28;20080;-60
2023/12/16 03:40:45;;;;;;;9.13;5.72;;;7.70;76.70;;;;;;5005506;28;20370;-60
2023/12/16 03:43:11;;;;;;;8.25;6.45;;;7.70;76.70;;;;;;4988248;28;20030;-60
2023/12/16 03:45:37;;;;;;;9.02;6.70;;;7.70;76.80;;;;;;5004949;28;20040;-62
2023/12/16 03:48:02;;;;;;;10.13;7.43;;;7.70;76.90;;;;;;5005770;28;20393;-59
2023/12/16 03:50:28;;;;;;;10.85;6.97;;;7.70;76.90;;;;;;5007216;28;20029;-58
2023/12/16 03:52:54;;;;;;;11.10;8.07;;;7.70;76.90;;;;;;5004838;28;20038;-59
2023/12/16 03:55:19;;;;;;;9.75;7.07;;;7.70;76.90;;;;;;5005689;28;20038;-60
2023/12/16 03:57:45;;;;;;;12.23;7.18;;;7.70;76.90;;;;;;5005021;28;20045;-61
2023/12/16 04:00:11;;;;;;;10.48;7.30;;;7.70;76.90;;;;;;5005811;28;20026;-59
2023/12/16 04:02:37;;;;;;;7.68;6.38;;;7.70;76.90;;;;;;5004998;28;20491;-61
2023/12/16 04:05:03;;;;;;;7.60;6.20;;;7.70;76.90;;;;;;5002970;28;20034;-59
2023/12/16 04:07:28;;;;;;;7.03;4.80;;;7.70;76.90;;;;;;5006829;28;20457;-58
2023/12/16 04:09:54;;;;;;;5.60;4.97;;;7.70;76.90;;;;;;5003951;28;20422;-58
2023/12/16 04:12:20;;;;;;;5.53;4.97;;;7.70;76.90;;;;;;5005312;28;20023;-59
2023/12/16 04:14:46;;;;;;;10.18;5.72;;;7.70;76.90;;;;;;5005654;28;20053;-61
2023/12/16 04:17:12;;;;;;;7.72;5.78;;;7.70;76.90;;;;;;5004202;28;20105;-60
2023/12/16 04:19:38;;;;;;;9.98;6.13;;;7.70;76.80;;;;;;5005551;28;20168;-60
2023/12/16 04:22:04;;;;;;;9.18;5.75;;;7.70;76.90;;;;;;5003710;28;20033;-61
2023/12/16 04:24:30;;;;;;;8.80;6.07;;;7.70;76.90;;;;;;5002723;28;20413;-59
2023/12/16 04:26:55;;;;;;;8.02;6.22;;;7.70;77.00;;;;;;5005310;28;20034;-59
2023/12/16 04:29:21;;;;;;;9.40;6.35;;;7.70;77.00;;;;;;4999979;28;20038;-59
2023/12/16 04:31:47;;;;;;;9.75;6.70;;;7.70;77.00;;;;;;5005106;28;20041;-60
2023/12/16 04:34:12;;;;;;;9.52;6.82;;;7.70;77.10;;;;;;5003948;28;20032;-60
2023/12/16 04:36:38;;;;;;;10.95;7.30;;;7.70;77.10;;;;;;5004665;28;20408;-61
2023/12/16 04:39:07;;;;;;;11.02;7.65;;;7.70;77.10;;;;;;5008514;28;20064;-61
2023/12/16 04:41:33;;;;;;;12.63;8.82;;;7.70;77.10;;;;;;5009462;28;20116;-60
2023/12/16 04:44:00;;;;;;;11.07;8.63;;;7.70;77.00;;;;;;5008282;28;20054;-64
2023/12/16 04:46:25;;;;;;;13.30;9.45;;;7.70;77.00;;;;;;4925480;28;20033;-60
2023/12/16 04:48:51;;;;;;;12.02;8.80;;;7.70;76.90;;;;;;5008810;28;20026;-60
2023/12/16 04:51:17;;;;;;;12.93;8.57;;;7.70;76.90;;;;;;5007563;28;20050;-60
2023/12/16 04:53:43;;;;;;;11.23;8.40;;;7.70;76.80;;;;;;5010256;28;20034;-60
2023/12/16 04:56:09;;;;;;;12.20;8.60;;;7.70;76.70;;;;;;5005902;28;20520;-60
2023/12/16 04:58:34;;;;;;;12.95;8.93;;;7.70;76.60;;;;;;5008183;28;20042;-60
2023/12/16 05:01:00;;;;;;;10.60;7.50;;;7.60;76.60;;;;;;5007244;28;20029;-61
2023/12/16 05:03:26;;;;;;;9.55;6.90;;;7.60;76.70;;;;;;5007273;28;20392;-61
2023/12/16 05:05:51;;;;;;;10.35;6.40;;;7.60;76.70;;;;;;5002709;28;20511;-60
2023/12/16 05:08:19;;;;;;;11.05;7.32;;;7.60;76.70;;;;;;5007559;28;20365;-59
2023/12/16 05:10:47;;;;;;;10.57;7.13;;;7.60;76.70;;;;;;4989665;28;20715;-60
2023/12/16 05:13:14;;;;;;;9.32;7.57;;;7.60;76.70;;;;;;5006073;28;20030;-60
2023/12/16 05:15:41;;;;;;;11.18;7.70;;;7.50;76.50;;;;;;5003721;28;20087;-60
2023/12/16 05:18:07;;;;;;;11.48;8.35;;;7.50;76.60;;;;;;5006487;28;20049;-60
2023/12/16 05:20:37;;;;;;;10.63;7.90;;;7.50;76.70;;;;;;5007858;28;20105;-62
2023/12/16 05:23:03;;;;;;;11.88;8.40;;;7.40;76.70;;;;;;5007048;28;20132;-59
2023/12/16 05:25:30;;;;;;;13.00;9.02;;;7.40;76.80;;;;;;5008332;28;20105;-61
2023/12/16 05:27:56;;;;;;;12.25;9.27;;;7.40;76.90;;;;;;5007142;28;20076;-61
2023/12/16 05:30:22;;;;;;;13.82;9.38;;;7.40;76.80;;;;;;5007913;28;20034;-61
2023/12/16 05:32:48;;;;;;;12.20;9.25;;;7.40;76.90;;;;;;5007248;28;20026;-60
2023/12/16 05:35:14;;;;;;;13.50;9.98;;;7.40;76.90;;;;;;5008380;28;20084;-61
2023/12/16 05:37:40;;;;;;;11.75;9.65;;;7.30;76.80;;;;;;5006897;28;20046;-60
2023/12/16 05:40:06;;;;;;;11.93;9.65;;;7.30;77.00;;;;;;5007775;28;20102;-59
2023/12/16 05:42:32;;;;;;;10.65;8.75;;;7.30;77.00;;;;;;5008347;28;20481;-61
2023/12/16 05:44:57;;;;;;;11.40;8.63;;;7.30;77.10;;;;;;5004626;28;20030;-59
2023/12/16 05:47:23;;;;;;;10.77;8.13;;;7.40;77.10;;;;;;4905058;28;20038;-61
2023/12/16 05:49:49;;;;;;;13.35;8.95;;;7.30;76.90;;;;;;5007433;28;20032;-60
2023/12/16 05:52:14;;;;;;;14.48;10.02;;;7.40;76.80;;;;;;5007288;28;20034;-60
2023/12/16 05:54:40;;;;;;;13.48;10.32;;;7.30;76.70;;;;;;5005960;28;20037;-60
2023/12/16 05:57:06;;;;;;;14.00;9.63;;;7.30;76.80;;;;;;5006261;28;20050;-60
2023/12/16 05:59:31;;;;;;;14.00;9.98;;;7.30;76.80;;;;;;5007241;28;20056;-60
2023/12/16 06:01:57;;;;;;;15.43;10.20;;;7.30;76.60;;;;;;5007571;28;20045;-60
2023/12/16 06:04:22;;;;;;;13.50;10.40;;;7.20;76.60;;;;;;5007477;28;20057;-60
2023/12/16 06:06:48;;;;;;;15.70;11.30;;;7.20;76.70;;;;;;5007707;28;20017;-61
2023/12/16 06:09:14;;;;;;;13.00;9.70;;;7.20;76.80;;;;;;5007897;28;20097;-61
2023/12/16 06:11:40;;;;;;;13.57;9.85;;;7.20;76.90;;;;;;5003636;28;20033;-59
2023/12/16 06:14:06;;;;;;;14.52;9.43;;;7.20;76.90;;;;;;5006962;28;20025;-61
2023/12/16 06:16:31;;;;;;;12.57;9.88;;;7.20;76.90;;;;;;5006443;28;20029;-60
2023/12/16 06:18:57;;;;;;;14.43;9.65;;;7.20;76.90;;;;;;5006818;28;20061;-60
2023/12/16 06:21:23;;;;;;;11.57;8.93;;;7.20;77.00;;;;;;5004801;28;20523;-60
2023/12/16 06:23:49;;;;;;;12.90;9.00;;;7.20;77.00;;;;;;5007345;28;20034;-60
2023/12/16 06:26:14;;;;;;;13.23;9.68;;;7.20;77.10;;;;;;5006751;28;20034;-61
2023/12/16 06:28:40;;;;;;;11.93;8.65;;;7.20;77.10;;;;;;5007212;28;20358;-60
2023/12/16 06:31:05;;;;;;;12.18;8.75;;;7.20;77.10;;;;;;5002293;28;20037;-59
2023/12/16 06:33:31;;;;;;;11.55;8.60;;;7.10;77.00;;;;;;5005961;28;20079;-60
2023/12/16 06:35:57;;;;;;;15.82;9.48;;;7.10;77.00;;;;;;5005997;28;20033;-60
2023/12/16 06:38:22;;;;;;;12.38;8.98;;;7.10;76.90;;;;;;5006146;28;20032;-61
2023/12/16 06:40:50;;;;;;;11.43;9.23;;;7.20;77.00;;;;;;5007508;28;20038;-60
2023/12/16 06:43:16;;;;;;;13.25;9.60;;;7.10;76.90;;;;;;5003729;28;20542;-59
2023/12/16 06:45:41;;;;;;;15.30;12.30;;;7.10;77.00;;;;;;4897499;28;20654;-59
2023/12/16 06:48:07;;;;;;;15.10;11.45;;;7.10;76.80;;;;;;5006049;28;20061;-61
2023/12/16 06:50:33;;;;;;;19.42;11.68;;;7.10;76.90;;;;;;5005735;28;20041;-60
2023/12/16 06:52:59;;;;;;;14.10;11.00;;;7.10;76.80;;;;;;5006664;28;20029;-60
2023/12/16 06:55:25;;;;;;;16.55;11.63;;;7.00;76.70;;;;;;5005203;28;20066;-60
2023/12/16 06:57:50;;;;;;;15.40;11.02;;;7.00;76.90;;;;;;5006929;28;20041;-60
2023/12/16 07:00:16;;;;;;;15.55;10.85;;;7.00;77.10;;;;;;5002778;28;20030;-59
2023/12/16 07:02:43;;;;;;;15.52;10.60;;;7.00;77.20;;;;;;5006827;28;20026;-60
2023/12/16 07:05:10;;;;;;;14.40;10.55;;;7.00;77.30;;;;;;5004999;28;20364;-59
2023/12/16 07:07:36;;;;;;;16.02;10.68;;;7.00;77.30;;;;;;5002917;28;20072;-60
2023/12/16 07:10:02;;;;;;;15.45;10.95;;;7.00;77.30;;;;;;5006069;28;20036;-61
2023/12/16 07:12:28;;;;;;;13.60;10.25;;;7.00;77.20;;;;;;5010244;28;20033;-61
2023/12/16 07:14:54;;;;;;;13.88;9.55;;;6.90;77.10;;;;;;5007438;28;20465;-60
2023/12/16 07:17:19;;;;;;;12.57;8.95;;;6.90;77.10;;;;;;4989413;28;20034;-62
2023/12/16 07:19:45;;;;;;;15.48;9.65;;;7.00;77.00;;;;;;5005174;28;20099;-60
2023/12/16 07:22:16;;;;;;;14.45;9.15;;;6.90;77.00;;;;;;5005571;28;20044;-61
2023/12/16 07:24:41;;;;;;;18.17;9.77;;;6.90;77.00;;;;;;5006726;28;20444;-63
2023/12/16 07:27:07;;;;;;;17.15;10.77;;;6.90;77.10;;;;;;5005169;28;20036;-61
2023/12/16 07:29:34;;;;;;;16.38;11.15;;;6.90;77.20;;;;;;5007099;28;20022;-61
2023/12/16 07:32:00;;;;;;;15.80;10.63;;;6.90;77.20;;;;;;5005999;28;20385;-62
2023/12/16 07:34:25;;;;;;;14.27;10.25;;;6.90;77.30;;;;;;5005987;28;20038;-62
2023/12/16 07:36:51;;;;;;;13.15;10.48;;;6.90;77.40;;;;;;5007596;28;20026;-61
2023/12/16 07:39:17;;;;;;;13.60;10.52;;;6.90;77.40;;;;;;5005716;28;20038;-61
2023/12/16 07:41:43;;;;;;;15.60;10.70;;;7.00;77.50;;;;;;5003733;28;20033;-61
2023/12/16 07:44:09;;;;;;;17.02;10.80;;;7.00;77.50;;;;;;5006217;28;20029;-61
2023/12/16 07:46:34;;;;;;;13.68;10.00;;;7.00;77.50;;;;;;4909791;28;20034;-62
2023/12/16 07:49:00;;;;;;;13.55;9.93;;;7.00;77.60;;;;;;5002738;28;20033;-60
2023/12/16 07:51:26;;;;;;;14.93;10.40;;;7.00;77.50;;;;;;5002387;28;20083;-62
2023/12/16 07:53:53;;;;;;;14.15;9.60;;;7.10;77.50;;;;;;5004957;28;20022;-62
2023/12/16 07:56:21;;;;;;;16.52;12.38;;;7.10;77.50;;;;;;4988349;28;20092;-63
2023/12/16 07:58:48;;;;;;;15.52;10.07;;;7.10;77.50;;;;;;5005757;28;20042;-61
2023/12/16 08:01:14;;;;;;;16.08;10.48;;;7.20;77.50;;;;;;5001601;28;20018;-62
2023/12/16 08:03:40;;;;;;;14.90;10.77;;;7.20;77.50;;;;;;5003096;28;20077;-62
2023/12/16 08:06:06;;;;;;;16.33;11.18;;;7.20;77.60;;;;;;5006838;28;20065;-62
2023/12/16 08:08:32;;;;;;;18.48;10.82;;;7.20;77.70;;;;;;5006484;28;20037;-61
2023/12/16 08:10:58;;;;;;;14.32;10.68;;;7.30;77.80;;;;;;5004783;28;20030;-61
2023/12/16 08:13:23;;;;;;;18.17;10.80;;;7.30;77.90;;;;;;5005980;28;20396;-61
2023/12/16 08:15:50;;;;;;;15.57;10.63;;;7.40;77.90;;;;;;5004487;28;20033;-61
2023/12/16 08:18:16;;;;;;;18.25;12.82;;;7.40;77.90;;;;;;5011081;28;20066;-62
2023/12/16 08:20:41;;;;;;;16.30;11.60;;;7.50;78.00;;;;;;5013225;28;20480;-62
2023/12/16 08:23:08;;;;;;;15.15;10.50;;;7.50;78.00;;;;;;5008979;28;20026;-61
2023/12/16 08:25:37;;;;;;;14.82;10.02;;;7.60;78.10;;;;;;5009846;28;21592;-62
2023/12/16 08:28:02;;;;;;;14.82;10.18;;;7.60;78.00;;;;;;4993361;28;20026;-62
2023/12/16 08:30:29;;;;;;;13.23;10.13;;;7.70;78.00;;;;;;5009907;28;20412;-62
2023/12/16 08:32:55;;;;;;;16.63;10.27;;;7.70;78.00;;;;;;5004407;28;20156;-62
2023/12/16 08:35:20;;;;;;;13.45;10.23;;;7.80;77.90;;;;;;5008799;28;20515;-61
2023/12/16 08:37:46;;;;;;;15.00;10.02;;;7.80;77.90;;;;;;5009143;28;20099;-60
2023/12/16 08:40:12;;;;;;;14.80;10.48;;;7.90;77.90;;;;;;5008364;28;20033;-62
2023/12/16 08:42:42;;;;;;;14.98;10.80;;;7.90;77.80;;;;;;5007999;28;20508;-61
2023/12/16 08:45:09;;;;;;;13.68;9.90;;;7.90;77.80;;;;;;5008834;28;20042;-61
2023/12/16 08:47:35;;;;;;;14.35;10.40;;;8.00;77.80;;;;;;5009946;28;20030;-60
2023/12/16 08:50:01;;;;;;;13.57;10.20;;;8.10;77.80;;;;;;5006330;28;20083;-61
2023/12/16 08:52:27;;;;;;;14.55;10.65;;;8.10;77.80;;;;;;5008976;28;20117;-64
2023/12/16 08:54:53;;;;;;;15.43;10.45;;;8.10;77.60;;;;;;5008801;28;20165;-61
2023/12/16 08:57:18;;;;;;;14.75;10.65;;;8.20;77.50;;;;;;5008677;28;20026;-61
2023/12/16 08:59:44;;;;;;;14.25;10.65;;;8.20;78.10;;;;;;5008378;28;20033;-61
2023/12/16 09:02:10;;;;;;;15.65;10.77;;;8.30;77.40;;;;;;4990718;28;20030;-62
2023/12/16 09:04:36;;;;;;;12.15;9.80;;;8.30;77.20;;;;;;5005991;28;20113;-62
2023/12/16 09:07:02;;;;;;;13.10;9.88;;;8.30;77.00;;;;;;5008038;28;20037;-61
2023/12/16 09:09:27;;;;;;;13.02;9.38;;;8.40;76.70;;;;;;5008517;28;20018;-62
2023/12/16 09:11:53;;;;;;;14.50;9.38;;;8.40;76.40;;;;;;5008822;28;20028;-62
2023/12/16 09:14:19;;;;;;;13.27;9.82;;;8.40;76.30;;;;;;5008530;28;20040;-62
2023/12/16 09:16:45;;;;;;;13.75;9.57;;;8.40;76.30;;;;;;5005447;28;20096;-62
2023/12/16 09:19:11;;;;;;;10.85;8.77;;;8.40;76.40;;;;;;5006106;28;20045;-62
2023/12/16 09:21:37;;;;;;;13.82;10.00;;;8.50;76.50;;;;;;5007848;28;20057;-62
2023/12/16 09:24:06;;;;;;;13.38;9.50;;;8.50;76.40;;;;;;5006696;28;20026;-62
2023/12/16 09:26:32;;;;;;;13.88;9.85;;;8.50;76.40;;;;;;5014038;28;20366;-61
2023/12/16 09:28:59;;;;;;;15.07;9.70;;;8.60;76.50;;;;;;5006977;28;20161;-62
2023/12/16 09:31:24;;;;;;;14.40;10.07;;;8.60;76.60;;;;;;5008290;28;20040;-62
2023/12/16 09:33:50;;;;;;;15.70;10.57;;;8.70;76.60;;;;;;5008119;28;20116;-61
2023/12/16 09:36:16;;;;;;;16.58;10.35;;;8.80;76.60;;;;;;5003934;28;20042;-62
2023/12/16 09:38:42;;;;;;;15.35;10.27;;;8.80;76.70;;;;;;5005914;28;20033;-61
2023/12/16 09:41:28;;;;;;;15.13;10.75;;;8.90;76.60;;;;;;5005039;28;20046;-63
2023/12/16 09:43:56;;;;;;;13.32;9.57;;;9.00;76.50;;;;;;5003224;28;20050;-61
2023/12/16 09:46:33;;;;;;;13.57;9.45;;;9.10;76.40;;;;;;5001349;28;20100;-61
2023/12/16 09:49:02;;;;;;;15.05;9.68;;;9.10;75.90;;;;;;5006291;28;20576;-62
2023/12/16 09:51:27;;;;;;;11.40;8.77;;;9.20;75.90;;;;;;5007806;28;20029;-62
2023/12/16 09:53:54;;;;;;;16.27;9.75;;;9.20;75.70;;;;;;5006436;28;20030;-62
2023/12/16 09:56:20;;;;;;;11.68;8.82;;;9.30;75.50;;;;;;5008665;28;20109;-60
2023/12/16 09:58:48;;;;;;;11.82;8.10;;;9.30;75.40;;;;;;5007071;28;20095;-61
2023/12/16 10:01:16;;;;;;;11.70;8.95;;;9.40;75.50;;;;;;5002274;28;20045;-62
2023/12/16 10:03:45;;;;;;;11.63;9.00;;;9.50;75.50;;;;;;5006757;28;20028;-62
2023/12/16 10:06:11;;;;;;;15.20;9.57;;;9.50;75.30;;;;;;5007132;28;20022;-62
2023/12/16 10:08:38;;;;;;;12.75;9.40;;;9.60;75.30;;;;;;5003186;28;20453;-62
2023/12/16 10:11:05;;;;;;;13.32;9.45;;;9.60;75.10;;;;;;5008441;28;20084;-62
2023/12/16 10:13:32;;;;;;;14.50;9.82;;;9.70;75.00;;;;;;5007844;28;20036;-62
2023/12/16 10:15:59;;;;;;;11.85;9.05;;;9.70;74.80;;;;;;4986603;28;20055;-63
2023/12/16 10:18:28;;;;;;;13.48;9.55;;;9.80;74.80;;;;;;5004145;28;20058;-62
2023/12/16 10:20:55;;;;;;;13.57;9.80;;;9.80;74.60;;;;;;5005038;28;20032;-62
2023/12/16 10:23:25;;;;;;;13.48;9.13;;;9.90;74.70;;;;;;5005776;28;20056;-62
2023/12/16 10:25:51;;;;;;;10.77;7.88;;;9.90;74.60;;;;;;4988865;28;20030;-63
2023/12/16 10:28:18;;;;;;;17.38;12.45;;;10.00;74.50;;;;;;5006587;28;20079;-63
2023/12/16 10:30:45;;;;;;;17.40;11.10;;;10.00;74.10;;;;;;5008328;28;20022;-63
2023/12/16 10:33:11;;;;;;;15.25;9.50;;;10.10;74.10;;;;;;5009099;28;20578;-62
2023/12/16 10:35:37;;;;;;;12.60;9.02;;;10.10;73.80;;;;;;5006892;28;20381;-63
2023/12/16 10:38:08;;;;;;;13.55;8.50;;;10.20;73.80;;;;;;5004757;28;20041;-63
2023/12/16 10:40:37;;;;;;;9.52;7.20;;;10.20;73.50;;;;;;5010757;28;20092;-63
2023/12/16 10:43:03;;;;;;;10.63;7.55;;;10.20;73.20;;;;;;5009079;28;20092;-62
2023/12/16 10:45:29;;;;;;;8.35;6.82;;;10.20;72.80;;;;;;5004073;28;20057;-63
2023/12/16 10:47:56;;;;;;;8.85;6.55;;;10.30;72.80;;;;;;5008240;28;20059;-62
2023/12/16 10:50:25;;;;;;;6.18;5.40;;;10.30;72.50;;;;;;4951203;28;20022;-62
2023/12/16 10:52:55;;;;;;;8.90;6.38;;;10.30;72.60;;;;;;5006926;28;20527;-62
2023/12/16 10:55:45;;;;;;;7.20;5.72;;;10.40;72.20;;;;;;5003726;28;20044;-61
2023/12/16 10:58:19;;;;;;;7.20;5.68;;;10.50;72.10;;;;;;4981178;28;20050;-62
2023/12/16 11:00:46;;;;;;;;;;;10.60;72.40;;;;;;5006806;28;20030;-62
2023/12/16 11:03:26;;;;;;;6.43;4.82;;;10.70;71.90;;;;;;5007331;28;19909;-62
2023/12/16 11:05:59;;;;;;;9.30;4.95;;;10.70;71.40;;;;;;5008170;28;20030;-63
2023/12/16 11:08:25;;;;;;;7.15;4.80;;;10.80;71.30;;;;;;5004476;28;20041;-63
2023/12/16 11:10:53;;;;;;;5.90;4.53;;;10.80;71.30;;;;;;5010009;28;20034;-62
2023/12/16 11:13:19;;;;;;;8.27;6.40;;;10.80;71.00;;;;;;4992301;28;20025;-63
2023/12/16 11:15:50;;;;;;;9.38;7.07;;;10.90;71.20;;;;;;5005594;28;20030;-62
2023/12/16 11:18:26;;;;;;;11.27;6.30;;;10.90;71.50;;;;;;5007281;28;20061;-62
2023/12/16 11:20:56;;;;;;;8.23;5.35;;;10.90;70.60;;;;;;5005659;28;20123;-62
2023/12/16 11:23:23;;;;;;;7.35;5.57;;;11.00;70.70;;;;;;5006533;28;20140;-62
2023/12/16 11:25:51;;;;;;;6.47;5.00;;;11.00;70.90;;;;;;5005688;28;20046;-63
2023/12/16 11:28:19;;;;;;;8.35;6.50;;;11.00;71.00;;;;;;5007654;28;20030;-62
2023/12/16 11:30:44;;;;;;;15.07;6.38;;;11.10;71.10;;;;;;5007762;28;20120;-62
2023/12/16 11:33:11;;;;;;;8.43;6.40;;;11.20;70.90;;;;;;4990158;28;20030;-64
2023/12/16 11:35:37;;;;;;;9.00;6.45;;;11.30;70.10;;;;;;4999738;28;20026;-62
2023/12/16 11:38:03;;;;;;;10.60;5.60;;;11.30;69.70;;;;;;5004976;28;20057;-63
2023/12/16 11:40:51;;;;;;;6.80;5.22;;;11.40;69.20;;;;;;5006613;28;20478;-63
2023/12/16 11:43:17;;;;;;;7.38;5.32;;;11.40;67.60;;;;;;5005354;28;20088;-61
2023/12/16 11:45:44;;;;;;;7.00;5.25;;;11.40;68.80;;;;;;5002182;28;20022;-62
2023/12/16 11:48:14;;;;;;;9.55;5.10;;;11.30;68.40;;;;;;5012016;28;20453;-62
2023/12/16 11:50:41;;;;;;;4.75;3.85;;;11.30;68.30;;;;;;4932670;28;20030;-63
2023/12/16 11:53:11;;;;;;;5.35;3.65;;;11.20;67.90;;;;;;5003255;28;20933;-62
2023/12/16 11:55:37;;;;;;;6.00;4.18;;;11.20;67.30;;;;;;5003641;28;20041;-63
2023/12/16 11:58:04;;;;;;;5.68;4.07;;;11.10;67.50;;;;;;5010116;28;20370;-62
2023/12/16 12:00:30;;;;;;;5.13;3.42;;;11.00;67.00;;;;;;5008838;28;20112;-62
2023/12/16 12:02:59;;;;;;;4.65;3.30;;;11.00;67.30;;;;;;4991154;28;20120;-61
2023/12/16 12:05:26;;;;;;;6.05;3.60;;;10.90;67.40;;;;;;4992306;28;20097;-62
2023/12/16 12:07:52;;;;;;;4.85;3.40;;;10.80;66.90;;;;;;5006517;28;20026;-62
2023/12/16 12:10:18;;;;;;;4.75;2.90;;;10.70;66.90;;;;;;5007749;28;20080;-62
2023/12/16 12:12:43;;;;;;;5.22;3.28;;;10.60;68.00;;;;;;5010456;28;20026;-63
2023/12/16 12:15:10;;;;;;;5.85;4.32;;;10.50;67.00;;;;;;5009426;28;20037;-62
2023/12/16 12:17:36;;;;;;;3.92;3.40;;;10.40;67.40;;;;;;5009208;28;20036;-63
2023/12/16 12:20:03;;;;;;;4.28;3.47;;;10.30;68.00;;;;;;4991395;28;20042;-61
2023/12/16 12:22:30;;;;;;;5.00;3.78;;;10.30;68.30;;;;;;5009866;28;20017;-62
2023/12/16 12:24:56;;;;;;;8.10;4.00;;;10.20;68.70;;;;;;5007377;28;20449;-61
2023/12/16 12:27:22;;;;;;;5.03;3.60;;;10.20;69.10;;;;;;5009027;28;20038;-63
2023/12/16 12:29:56;;;;;;;5.38;3.75;;;10.20;69.10;;;;;;5006650;28;20037;-62
2023/12/16 12:32:26;;;;;;;4.22;3.30;;;10.30;69.00;;;;;;5006110;28;20112;-62
2023/12/16 12:34:59;;;;;;;4.55;2.78;;;10.30;68.90;;;;;;5008377;28;20029;-62
2023/12/16 12:37:26;;;;;;;4.15;2.33;;;10.30;68.30;;;;;;5000857;28;20030;-63
2023/12/16 12:39:52;;;;;;;2.80;2.08;;;10.30;68.00;;;;;;5004368;28;20044;-61
2023/12/16 12:42:17;;;;;;;2.95;1.90;;;10.30;67.40;;;;;;5004890;28;20037;-63
2023/12/16 12:44:53;;;;;;;4.00;2.15;;;10.30;67.40;;;;;;4999243;28;20030;-61